Fykan — LLDJ — position and weather

sailwx.info

Track history (hours):
 
Tides and Currents Weather Stations Pressure Air Temp Water Temp Dewpoint Dewpoint Depression Visibility Wind Speed Wind Dir Waves Ship Positions

Fykan

Last reported at 2016-Aug-25 10:08 UTC. Time now 2016-Aug-25 11:27 UTC.
Position N 66°34' E 012°59'.

Length 52 m; draft 3.3 m.

Type: Ship. MMSI: 259681000.

Date/timePositionNaut miles runAvg speedWind from/ knotsBaromVisibWave heightAir tempDewpointWater temp
2016-Aug-25 10:08N 66°34' E 012°59'2 0.4
2016-Aug-25 06:22N 66°36' E 012°59'4 0.4
2016-Aug-24 20:33N 66°34' E 012°50'4 0.7
2016-Aug-24 14:29N 66°36' E 012°59'5 5.5
2016-Aug-24 13:33N 66°34' E 012°47'2 0.6
2016-Aug-24 10:09N 66°34' E 012°52'3 5.6
2016-Aug-24 09:33N 66°36' E 012°59'0 0.1
2016-Aug-24 06:24N 66°36' E 012°59'6 0.6
2016-Aug-23 20:23N 66°36' E 012°43'4 0.9
2016-Aug-23 16:20N 66°34' E 012°50'1 0.2
2016-Aug-23 10:27N 66°34' E 012°48'6 5.1
2016-Aug-23 09:19N 66°37' E 012°59'6 1.2
2016-Aug-23 04:25N 66°34' E 012°48'5 0.5
2016-Aug-22 17:11N 66°37' E 012°59'1 0.4
2016-Aug-22 14:21N 66°36' E 012°59'5 6.1
2016-Aug-22 13:34N 66°34' E 012°47'0 0.0
2016-Aug-22 11:08N 66°34' E 012°48'5 4.9
2016-Aug-22 10:12N 66°35' E 012°59'3 3.6
2016-Aug-22 09:30N 66°37' E 012°59'3 0.9
2016-Aug-22 06:06N 66°34' E 012°59'3 5.8
2016-Aug-22 05:32N 66°34' E 012°50'2 0.2
2016-Aug-21 20:26N 66°34' E 012°56'7 3.7
2016-Aug-21 18:30N 66°36' E 013°13'2 1.5
2016-Aug-21 17:06N 66°34' E 013°11'5 3.5
2016-Aug-21 15:33N 66°37' E 012°59'5 5.2
2016-Aug-21 14:32N 66°34' E 012°50'2 0.1
2016-Aug-20 10:22N 66°34' E 012°46'5 5.8
2016-Aug-20 09:28N 66°35' E 012°59'1 0.3
2016-Aug-20 06:20N 66°36' E 012°59'4 5.3
2016-Aug-20 05:33N 66°34' E 012°50'2 0.2
2016-Aug-19 20:14N 66°34' E 012°56'1 0.3
2016-Aug-19 16:31N 66°34' E 012°54'3 0.4
2016-Aug-19 10:30N 66°34' E 012°47'6 5.0
2016-Aug-19 09:19N 66°37' E 012°59'5 1.1
2016-Aug-19 04:33N 66°34' E 012°50'4 0.3
2016-Aug-18 14:23N 66°36' E 012°59'5 6.1
2016-Aug-18 13:32N 66°34' E 012°47'4 1.2
2016-Aug-18 10:24N 66°34' E 012°56'3 0.7
2016-Aug-18 06:22N 66°36' E 012°59'4 5.0
2016-Aug-18 05:32N 66°34' E 012°50'4 0.5
2016-Aug-17 20:27N 66°36' E 012°42'7 1.2
2016-Aug-17 14:33N 66°37' E 012°60'6 5.7
2016-Aug-17 13:33N 66°34' E 012°47'0 0.1
2016-Aug-17 10:29N 66°34' E 012°47'5 5.5
2016-Aug-17 09:33N 66°36' E 012°59'0 0.1
2016-Aug-17 06:24N 66°36' E 012°59'4 4.9
2016-Aug-17 05:32N 66°34' E 012°50'4 0.3
2016-Aug-16 17:04N 66°36' E 012°59'4 5.5
2016-Aug-16 16:18N 66°34' E 012°50'1 0.1
2016-Aug-16 10:27N 66°34' E 012°49'0 0.0
2016-Aug-16 04:27N 66°34' E 012°48'5 0.3
2016-Aug-15 14:33N 66°36' E 012°59'5 4.8
2016-Aug-15 13:33N 66°34' E 012°48'1 0.4
2016-Aug-15 11:16N 66°34' E 012°46'5 4.7
2016-Aug-15 10:09N 66°35' E 012°59'  
Track history (hours):
 
Tides and Currents Weather Stations Pressure Air Temp Water Temp Dewpoint Dewpoint Depression Visibility Wind Speed Wind Dir Waves Ship Positions

Fykan

Last reported at 2016-Aug-25 10:08 UTC. Time now 2016-Aug-25 11:27 UTC.
Position N 66°34' E 012°59'.

Length 52 m; draft 3.3 m.

Type: Ship. MMSI: 259681000.

Date/timePositionNaut miles runAvg speedWind from/ knotsBaromVisibWave heightAir tempDewpointWater temp
2016-Aug-25 10:08N 66°34' E 012°59'2 0.4
2016-Aug-25 06:22N 66°36' E 012°59'4 0.4
2016-Aug-24 20:33N 66°34' E 012°50'4 0.7
2016-Aug-24 14:29N 66°36' E 012°59'5 5.5
2016-Aug-24 13:33N 66°34' E 012°47'2 0.6
2016-Aug-24 10:09N 66°34' E 012°52'3 5.6
2016-Aug-24 09:33N 66°36' E 012°59'0 0.1
2016-Aug-24 06:24N 66°36' E 012°59'6 0.6
2016-Aug-23 20:23N 66°36' E 012°43'4 0.9
2016-Aug-23 16:20N 66°34' E 012°50'1 0.2
2016-Aug-23 10:27N 66°34' E 012°48'6 5.1
2016-Aug-23 09:19N 66°37' E 012°59'6 1.2
2016-Aug-23 04:25N 66°34' E 012°48'5 0.5
2016-Aug-22 17:11N 66°37' E 012°59'1 0.4
2016-Aug-22 14:21N 66°36' E 012°59'5 6.1
2016-Aug-22 13:34N 66°34' E 012°47'0 0.0
2016-Aug-22 11:08N 66°34' E 012°48'5 4.9
2016-Aug-22 10:12N 66°35' E 012°59'3 3.6
2016-Aug-22 09:30N 66°37' E 012°59'3 0.9
2016-Aug-22 06:06N 66°34' E 012°59'3 5.8
2016-Aug-22 05:32N 66°34' E 012°50'2 0.2
2016-Aug-21 20:26N 66°34' E 012°56'7 3.7
2016-Aug-21 18:30N 66°36' E 013°13'2 1.5
2016-Aug-21 17:06N 66°34' E 013°11'5 3.5
2016-Aug-21 15:33N 66°37' E 012°59'5 5.2
2016-Aug-21 14:32N 66°34' E 012°50'2 0.1
2016-Aug-20 10:22N 66°34' E 012°46'5 5.8
2016-Aug-20 09:28N 66°35' E 012°59'1 0.3
2016-Aug-20 06:20N 66°36' E 012°59'4 5.3
2016-Aug-20 05:33N 66°34' E 012°50'2 0.2
2016-Aug-19 20:14N 66°34' E 012°56'1 0.3
2016-Aug-19 16:31N 66°34' E 012°54'3 0.4
2016-Aug-19 10:30N 66°34' E 012°47'6 5.0
2016-Aug-19 09:19N 66°37' E 012°59'5 1.1
2016-Aug-19 04:33N 66°34' E 012°50'4 0.3
2016-Aug-18 14:23N 66°36' E 012°59'5 6.1
2016-Aug-18 13:32N 66°34' E 012°47'4 1.2
2016-Aug-18 10:24N 66°34' E 012°56'3 0.7
2016-Aug-18 06:22N 66°36' E 012°59'4 5.0
2016-Aug-18 05:32N 66°34' E 012°50'4 0.5
2016-Aug-17 20:27N 66°36' E 012°42'7 1.2
2016-Aug-17 14:33N 66°37' E 012°60'6 5.7
2016-Aug-17 13:33N 66°34' E 012°47'0 0.1
2016-Aug-17 10:29N 66°34' E 012°47'5 5.5
2016-Aug-17 09:33N 66°36' E 012°59'0 0.1
2016-Aug-17 06:24N 66°36' E 012°59'4 4.9
2016-Aug-17 05:32N 66°34' E 012°50'4 0.3
2016-Aug-16 17:04N 66°36' E 012°59'4 5.5
2016-Aug-16 16:18N 66°34' E 012°50'1 0.1
2016-Aug-16 10:27N 66°34' E 012°49'0 0.0
2016-Aug-16 04:27N 66°34' E 012°48'5 0.3
2016-Aug-15 14:33N 66°36' E 012°59'5 4.8
2016-Aug-15 13:33N 66°34' E 012°48'1 0.4
2016-Aug-15 11:16N 66°34' E 012°46'5 4.7
2016-Aug-15 10:09N 66°35' E 012°59'  

Dump ship's entire track history